createdAt,value
2017-03-31T00:00:36.500Z,76.06
2017-03-31T00:01:17.173Z,75.96
2017-03-31T00:01:57.849Z,76.44
2017-03-31T00:02:38.536Z,76.54
2017-03-31T00:03:19.109Z,76.64
2017-03-31T00:03:59.769Z,76.54
2017-03-31T00:04:40.452Z,76.44
2017-03-31T00:05:21.147Z,76.44
2017-03-31T00:06:01.760Z,76.25
2017-03-31T00:06:42.467Z,76.16
2017-03-31T00:07:23.156Z,76.64
2017-03-31T00:08:03.862Z,76.64
2017-03-31T00:08:44.471Z,76.25
2017-03-31T00:09:25.201Z,76.31
2017-03-31T00:10:05.931Z,76.92
2017-03-31T00:10:46.683Z,76.73
2017-03-31T00:11:27.429Z,76.92
2017-03-31T00:12:08.104Z,76.98
2017-03-31T00:12:48.742Z,76.82
2017-03-31T00:13:29.393Z,76.69
2017-03-31T00:14:10.050Z,76.79
2017-03-31T00:14:50.800Z,76.98
2017-03-31T00:15:31.557Z,76.88
2017-03-31T00:16:12.122Z,76.88
2017-03-31T00:16:53.849Z,76.98
2017-03-31T00:17:34.499Z,76.5
2017-03-31T00:18:15.194Z,76.59
2017-03-31T00:18:55.774Z,76.59
2017-03-31T00:19:37.462Z,76.5
2017-03-31T00:20:19.157Z,76.69
2017-03-31T00:20:59.861Z,76.59
2017-03-31T00:21:40.444Z,77.07
2017-03-31T00:22:22.103Z,76.5
2017-03-31T00:23:02.821Z,76.59
2017-03-31T00:23:43.492Z,76.69
2017-03-31T00:24:24.072Z,76.88
2017-03-31T00:25:04.716Z,76.88
2017-03-31T00:25:45.402Z,76.88
2017-03-31T00:26:26.117Z,77.26
2017-03-31T00:27:06.851Z,76.98
2017-03-31T00:27:47.514Z,76.98
2017-03-31T00:28:29.179Z,77.26
2017-03-31T00:29:09.826Z,76.98
2017-03-31T00:29:50.486Z,77.64
2017-03-31T00:30:31.132Z,77.45
2017-03-31T00:31:11.718Z,77.36
2017-03-31T00:31:52.374Z,77.45
2017-03-31T00:32:35.069Z,77.17
2017-03-31T00:33:16.739Z,77.45
2017-03-31T00:33:57.437Z,77.07
2017-03-31T00:34:38.170Z,77.45
2017-03-31T00:35:19.830Z,77.36
2017-03-31T00:36:00.498Z,77.36
2017-03-31T00:36:43.162Z,77.07
2017-03-31T00:37:23.814Z,77.55
2017-03-31T00:38:04.495Z,77.45
2017-03-31T00:38:46.186Z,77.64
2017-03-31T00:39:32.973Z,77.45
2017-03-31T00:40:13.688Z,77.26
2017-03-31T00:40:54.353Z,77.36
2017-03-31T00:41:45.997Z,77.55
2017-03-31T00:42:31.399Z,77.64
2017-03-31T00:43:11.991Z,77.93
2017-03-31T00:43:52.626Z,77.64
2017-03-31T00:44:34.227Z,77.51
2017-03-31T00:45:14.922Z,77.55
2017-03-31T00:45:55.500Z,77.74
2017-03-31T00:46:38.197Z,77.45
2017-03-31T00:47:18.897Z,77.36
2017-03-31T00:48:00.545Z,77.83
2017-03-31T00:48:41.093Z,77.83
2017-03-31T00:49:21.746Z,77.83
2017-03-31T00:50:02.433Z,77.64
2017-03-31T00:50:43.100Z,77.74
2017-03-31T00:51:23.679Z,77.83
2017-03-31T00:52:04.335Z,78.08
2017-03-31T00:52:45.032Z,77.89
2017-03-31T00:53:26.642Z,77.83
2017-03-31T00:54:07.260Z,78.03
2017-03-31T00:54:47.885Z,77.98
2017-03-31T00:55:28.560Z,78.41
2017-03-31T00:56:10.181Z,78.31
2017-03-31T00:56:50.836Z,78.17
2017-03-31T00:57:31.476Z,77.93
2017-03-31T00:58:12.130Z,77.89
2017-03-31T00:58:53.810Z,78.22
2017-03-31T00:59:36.513Z,78.12
2017-03-31T01:00:19.118Z,78.22
2017-03-31T01:01:00.826Z,78.69
2017-03-31T01:01:41.359Z,78.12
2017-03-31T01:02:23.052Z,78.75
2017-03-31T01:03:04.653Z,78.75
2017-03-31T01:03:45.242Z,78.46
2017-03-31T01:04:25.810Z,78.59
2017-03-31T01:05:06.479Z,78.69
2017-03-31T01:05:47.160Z,78.59
2017-03-31T01:06:27.860Z,78.56
2017-03-31T01:07:08.438Z,78.31
2017-03-31T01:07:49.060Z,78.41
2017-03-31T01:08:29.665Z,78.46
2017-03-31T01:09:10.352Z,78.56
2017-03-31T01:09:50.952Z,78.17
2017-03-31T01:10:31.590Z,78.59
2017-03-31T01:11:13.198Z,78.56
2017-03-31T01:11:53.813Z,78.46
2017-03-31T01:12:34.470Z,78.56
2017-03-31T01:13:15.121Z,78.65
2017-03-31T01:13:55.778Z,78.65
2017-03-31T01:14:36.435Z,78.69
2017-03-31T01:15:17.065Z,78.56
2017-03-31T01:15:57.750Z,78.37
2017-03-31T01:16:38.379Z,78.37
2017-03-31T01:17:19.030Z,78.56
2017-03-31T01:17:59.613Z,78.56
2017-03-31T01:18:40.244Z,78.65
2017-03-31T01:19:20.879Z,78.37
2017-03-31T01:20:01.440Z,78.94
2017-03-31T01:20:42.101Z,78.85
2017-03-31T01:21:23.764Z,78.98
2017-03-31T01:22:05.465Z,78.65
2017-03-31T01:22:46.088Z,78.85
2017-03-31T01:23:26.737Z,78.75
2017-03-31T01:24:07.404Z,78.75
2017-03-31T01:24:48.039Z,78.75
2017-03-31T01:25:28.694Z,78.88
2017-03-31T01:26:09.362Z,78.75
2017-03-31T01:26:49.932Z,78.94
2017-03-31T01:27:30.620Z,78.78
2017-03-31T01:28:11.260Z,78.98
2017-03-31T01:28:51.861Z,78.98
2017-03-31T01:29:32.432Z,78.94
2017-03-31T01:30:13.095Z,78.98
2017-03-31T01:30:54.780Z,78.98
2017-03-31T01:31:36.409Z,78.69
2017-03-31T01:32:17.074Z,78.69
2017-03-31T01:32:57.712Z,78.98
2017-03-31T01:33:38.365Z,78.78
2017-03-31T01:34:20.051Z,78.98
2017-03-31T01:35:01.731Z,78.98
2017-03-31T01:35:44.322Z,78.59
2017-03-31T01:36:24.916Z,78.98
2017-03-31T01:37:06.692Z,78.98
2017-03-31T01:37:48.296Z,78.78
2017-03-31T01:38:28.988Z,78.78
2017-03-31T01:39:09.596Z,78.75
2017-03-31T01:39:50.260Z,78.78
2017-03-31T01:40:30.904Z,78.98
2017-03-31T01:41:11.604Z,78.75
2017-03-31T01:41:52.215Z,78.69
2017-03-31T01:42:32.835Z,78.5
2017-03-31T01:43:14.494Z,78.78
2017-03-31T01:43:55.200Z,79.17
2017-03-31T01:44:35.798Z,78.65
2017-03-31T01:45:16.458Z,78.41
2017-03-31T01:45:57.101Z,78.41
2017-03-31T01:46:37.742Z,78.5
2017-03-31T01:47:18.411Z,78.5
2017-03-31T01:47:59.069Z,78.59
2017-03-31T01:48:39.723Z,78.5
2017-03-31T01:49:20.373Z,78.5
2017-03-31T01:50:01.047Z,78.65
2017-03-31T01:50:41.686Z,78.41
2017-03-31T01:51:22.355Z,78.46
2017-03-31T01:52:02.967Z,78.5
2017-03-31T01:52:43.630Z,78.78
2017-03-31T01:53:24.270Z,78.41
2017-03-31T01:54:04.942Z,78.78
2017-03-31T01:54:45.596Z,78.46
2017-03-31T01:55:26.260Z,78.41
2017-03-31T01:56:06.901Z,78.85
2017-03-31T01:56:47.484Z,78.69
2017-03-31T01:57:28.074Z,78.78
2017-03-31T01:58:08.690Z,78.75
2017-03-31T01:58:49.304Z,78.5
2017-03-31T01:59:30.015Z,78.78
2017-03-31T02:00:10.696Z,78.78
2017-03-31T02:00:51.262Z,78.78
2017-03-31T02:01:31.899Z,78.69
2017-03-31T02:02:12.504Z,78.41
2017-03-31T02:02:53.206Z,78.75
2017-03-31T02:03:33.781Z,78.5
2017-03-31T02:04:14.437Z,78.69
2017-03-31T02:04:55.115Z,78.59
2017-03-31T02:05:35.816Z,79.07
2017-03-31T02:06:16.398Z,78.98
2017-03-31T02:06:57.037Z,79.07
2017-03-31T02:07:37.706Z,79.46
2017-03-31T02:08:18.331Z,79.32
2017-03-31T02:08:59.000Z,79.32
2017-03-31T02:09:39.660Z,79.27
2017-03-31T02:10:20.311Z,79.27
2017-03-31T02:11:00.957Z,79.36
2017-03-31T02:11:41.661Z,79.17
2017-03-31T02:12:22.338Z,79.27
2017-03-31T02:13:02.914Z,79.07
2017-03-31T02:13:43.581Z,79.07
2017-03-31T02:14:24.251Z,78.88
2017-03-31T02:15:04.958Z,78.94
2017-03-31T02:15:45.529Z,79.46
2017-03-31T02:16:26.194Z,79.55
2017-03-31T02:17:06.805Z,79.22
2017-03-31T02:17:47.368Z,79.32
2017-03-31T02:18:28.088Z,79.27
2017-03-31T02:19:08.759Z,79.6
2017-03-31T02:19:49.343Z,79.6
2017-03-31T02:20:30.020Z,79.6
2017-03-31T02:21:10.626Z,79.51
2017-03-31T02:21:51.211Z,79.41
2017-03-31T02:22:31.850Z,79.6
2017-03-31T02:23:12.485Z,79.32
2017-03-31T02:23:53.095Z,79.32
2017-03-31T02:24:33.715Z,79.89
2017-03-31T02:25:14.337Z,79.89
2017-03-31T02:25:54.912Z,79.8
2017-03-31T02:26:35.552Z,79.89
2017-03-31T02:27:16.204Z,79.7
2017-03-31T02:27:56.864Z,79.6
2017-03-31T02:28:37.507Z,79.89
2017-03-31T02:29:18.166Z,79.89
2017-03-31T02:29:58.807Z,79.7
2017-03-31T02:30:39.460Z,79.7
2017-03-31T02:31:20.117Z,79.8
2017-03-31T02:32:00.715Z,80.46
2017-03-31T02:32:41.300Z,80.55
2017-03-31T02:33:21.872Z,80.55
2017-03-31T02:34:02.527Z,80.46
2017-03-31T02:34:43.240Z,80.27
2017-03-31T02:35:23.912Z,80.18
2017-03-31T02:36:04.505Z,80.08
2017-03-31T02:36:45.184Z,80.27
2017-03-31T02:37:25.785Z,80.55
2017-03-31T02:38:06.402Z,80.46
2017-03-31T02:38:46.986Z,80.36
2017-03-31T02:39:28.044Z,80.55
2017-03-31T02:40:08.603Z,80.75
2017-03-31T02:40:49.259Z,80.46
2017-03-31T02:41:29.890Z,80.65
2017-03-31T02:42:10.488Z,80.46
2017-03-31T02:42:51.116Z,80.75
2017-03-31T02:43:31.718Z,80.84
2017-03-31T02:44:12.305Z,81.03
2017-03-31T02:44:52.878Z,81.03
2017-03-31T02:45:33.528Z,80.9
2017-03-31T02:46:14.114Z,80.8
2017-03-31T02:46:54.702Z,80.8
2017-03-31T02:47:35.357Z,81.18
2017-03-31T02:48:16.021Z,81.18
2017-03-31T02:48:56.674Z,81.66
2017-03-31T02:49:37.317Z,81.28
2017-03-31T02:50:17.977Z,81.47
2017-03-31T02:50:58.632Z,81.09
2017-03-31T02:51:39.286Z,81.09
2017-03-31T02:52:19.929Z,81.09
2017-03-31T02:53:00.615Z,81.56
2017-03-31T02:53:41.237Z,81.37
2017-03-31T02:54:21.891Z,81.09
2017-03-31T02:55:03.570Z,81.28
2017-03-31T02:55:44.228Z,81.66
2017-03-31T02:56:24.892Z,81.47
2017-03-31T02:57:05.595Z,81.47
2017-03-31T02:57:46.182Z,81.37
2017-03-31T02:58:28.797Z,81.47
2017-03-31T02:59:09.455Z,81.95
2017-03-31T02:59:50.104Z,81.76
2017-03-31T03:00:30.752Z,81.66
2017-03-31T03:01:11.400Z,81.66
2017-03-31T03:01:52.059Z,81.47
2017-03-31T03:02:32.658Z,81.47
2017-03-31T03:03:13.347Z,81.56
2017-03-31T03:03:53.935Z,81.56
2017-03-31T03:04:34.558Z,81.76
2017-03-31T03:05:15.161Z,82.04
2017-03-31T03:05:55.762Z,82.04
2017-03-31T03:06:36.343Z,82.14
2017-03-31T03:07:16.970Z,82.04
2017-03-31T03:07:57.612Z,81.85
2017-03-31T03:08:38.181Z,81.85
2017-03-31T03:09:18.833Z,81.85
2017-03-31T03:09:59.476Z,81.76
2017-03-31T03:10:40.049Z,82.42
2017-03-31T03:11:20.686Z,82.42
2017-03-31T03:12:01.331Z,82.23
2017-03-31T03:12:41.906Z,82.32
2017-03-31T03:13:22.538Z,82.32
2017-03-31T03:14:03.135Z,81.95
2017-03-31T03:14:43.736Z,81.95
2017-03-31T03:15:24.313Z,81.95
2017-03-31T03:16:04.938Z,82.32
2017-03-31T03:16:45.539Z,82.32
2017-03-31T03:17:26.193Z,82.14
2017-03-31T03:18:06.855Z,82.09
2017-03-31T03:18:47.498Z,82.32
2017-03-31T03:19:28.150Z,82
2017-03-31T03:20:08.807Z,82.04
2017-03-31T03:20:49.455Z,82.42
2017-03-31T03:21:30.119Z,81.95
2017-03-31T03:22:10.695Z,82.19
2017-03-31T03:22:51.384Z,82.67
2017-03-31T03:23:32.010Z,82.61
2017-03-31T03:24:12.586Z,82.57
2017-03-31T03:24:53.230Z,82.7
2017-03-31T03:25:33.872Z,82.61
2017-03-31T03:26:14.453Z,82.57
2017-03-31T03:26:55.081Z,82.57
2017-03-31T03:27:35.669Z,82.61
2017-03-31T03:28:16.269Z,82.51
2017-03-31T03:28:56.842Z,82.7
2017-03-31T03:29:37.493Z,82.32
2017-03-31T03:30:18.084Z,82.51
2017-03-31T03:30:58.670Z,83.28
2017-03-31T03:31:39.245Z,83.09
2017-03-31T03:32:19.897Z,83.18
2017-03-31T03:33:00.479Z,82.9
2017-03-31T03:33:41.092Z,82.61
2017-03-31T03:34:21.672Z,82.57
2017-03-31T03:35:02.334Z,82.67
2017-03-31T03:35:42.998Z,82.42
2017-03-31T03:36:23.586Z,82.23
2017-03-31T03:37:04.257Z,82.32
2017-03-31T03:37:44.899Z,82.8
2017-03-31T03:38:25.545Z,82.9
2017-03-31T03:39:06.203Z,82.8
2017-03-31T03:39:46.851Z,82.7
2017-03-31T03:40:27.503Z,82.19
2017-03-31T03:41:08.163Z,82.67
2017-03-31T03:41:48.818Z,82.7
2017-03-31T03:42:29.475Z,82.7
2017-03-31T03:43:10.122Z,82.32
2017-03-31T03:43:50.781Z,82.32
2017-03-31T03:44:31.422Z,82.61
2017-03-31T03:45:12.083Z,82.8
2017-03-31T03:45:52.739Z,82.7
2017-03-31T03:46:33.312Z,82.8
2017-03-31T03:47:13.952Z,82.67
2017-03-31T03:47:54.648Z,82.8
2017-03-31T03:48:35.251Z,82.8
2017-03-31T03:49:15.825Z,82.7
2017-03-31T03:49:56.483Z,82.51
2017-03-31T03:50:37.156Z,82.51
2017-03-31T03:51:17.755Z,82.51
2017-03-31T03:51:58.327Z,82.61
2017-03-31T03:52:38.976Z,82.8
2017-03-31T03:53:19.626Z,82.7
2017-03-31T03:54:00.285Z,82.51
2017-03-31T03:54:40.952Z,82.61
2017-03-31T03:55:21.586Z,82.7
2017-03-31T03:56:02.240Z,82.42
2017-03-31T03:56:42.908Z,82.32
2017-03-31T03:57:23.485Z,82.8
2017-03-31T03:58:04.085Z,82.8
2017-03-31T03:58:44.656Z,82.7
2017-03-31T03:59:25.301Z,82.7
2017-03-31T04:00:05.902Z,82.7
2017-03-31T04:00:46.488Z,82.8
2017-03-31T04:01:27.067Z,82.7
2017-03-31T04:02:07.721Z,82.7
2017-03-31T04:02:48.356Z,82.8
2017-03-31T04:03:29.007Z,82.7
2017-03-31T04:04:09.651Z,82.8
2017-03-31T04:04:50.317Z,82.7
2017-03-31T04:05:30.968Z,82.8
2017-03-31T04:06:11.667Z,82.8
2017-03-31T04:06:52.270Z,82.32
2017-03-31T04:07:32.863Z,82.8
2017-03-31T04:08:13.464Z,82.99
2017-03-31T04:08:54.123Z,82.99
2017-03-31T04:09:34.793Z,82.7
2017-03-31T04:10:15.491Z,82.7
2017-03-31T04:10:56.177Z,82.7
2017-03-31T04:11:36.783Z,82.7
2017-03-31T04:12:17.394Z,82.7
2017-03-31T04:12:58.066Z,82.8
2017-03-31T04:13:38.711Z,82.7
2017-03-31T04:14:19.352Z,82.7
2017-03-31T04:15:00.004Z,82.7
2017-03-31T04:15:40.662Z,82.7
2017-03-31T04:16:21.309Z,82.7
2017-03-31T04:17:01.969Z,82.61
2017-03-31T04:17:42.616Z,82.8
2017-03-31T04:18:23.268Z,82.51
2017-03-31T04:19:03.915Z,82.7
2017-03-31T04:19:44.572Z,82.8
2017-03-31T04:20:25.226Z,82.61
2017-03-31T04:21:05.902Z,82.8
2017-03-31T04:21:46.550Z,82.7
2017-03-31T04:22:27.232Z,82.8
2017-03-31T04:23:07.833Z,82.8
2017-03-31T04:23:48.504Z,82.32
2017-03-31T04:24:29.145Z,82.61
2017-03-31T04:25:09.805Z,82.51
2017-03-31T04:25:50.452Z,82.51
2017-03-31T04:26:31.112Z,82.61
2017-03-31T04:27:11.701Z,83.18
2017-03-31T04:27:52.306Z,82.61
2017-03-31T04:28:32.981Z,82.99
2017-03-31T04:29:13.619Z,82.9
2017-03-31T04:29:54.279Z,82.8
2017-03-31T04:30:34.941Z,82.8
2017-03-31T04:31:15.572Z,82.51
2017-03-31T04:31:56.234Z,83.09
2017-03-31T04:32:36.885Z,82.61
2017-03-31T04:33:17.535Z,83.09
2017-03-31T04:33:59.211Z,83.09
2017-03-31T04:34:39.867Z,82.61
2017-03-31T04:35:20.530Z,82.51
2017-03-31T04:36:01.171Z,82.51
2017-03-31T04:36:41.838Z,82.61
2017-03-31T04:37:22.454Z,82.8
2017-03-31T04:38:03.033Z,82.8
2017-03-31T04:38:43.688Z,82.51
2017-03-31T04:39:24.316Z,82.51
2017-03-31T04:40:04.891Z,83.09
2017-03-31T04:40:46.766Z,82.9
2017-03-31T04:41:27.483Z,82.9
2017-03-31T04:42:08.143Z,82.9
2017-03-31T04:42:48.833Z,82.42
2017-03-31T04:43:29.456Z,82.99
2017-03-31T04:44:10.043Z,82.99
2017-03-31T04:44:50.676Z,82.8
2017-03-31T04:45:31.320Z,82.61
2017-03-31T04:46:11.883Z,82.61
2017-03-31T04:46:52.508Z,82.99
2017-03-31T04:47:33.120Z,82.51
2017-03-31T04:48:13.720Z,82.61
2017-03-31T04:48:54.337Z,82.61
2017-03-31T04:49:34.937Z,82.7
2017-03-31T04:50:15.513Z,82.32
2017-03-31T04:50:56.123Z,82.8
2017-03-31T04:51:36.686Z,82.7
2017-03-31T04:52:17.341Z,82.7
2017-03-31T04:52:57.986Z,82.7
2017-03-31T04:53:38.549Z,82.61
2017-03-31T04:54:19.195Z,82.51
2017-03-31T04:54:59.847Z,82.99
2017-03-31T04:55:40.419Z,82.7
2017-03-31T04:56:21.077Z,82.8
2017-03-31T04:57:01.704Z,82.61
2017-03-31T04:57:42.348Z,82.8
2017-03-31T04:58:23.008Z,82.7
2017-03-31T04:59:03.661Z,82.61
2017-03-31T04:59:44.308Z,82.7
2017-03-31T05:00:24.958Z,82.61
2017-03-31T05:01:05.622Z,82.7
2017-03-31T05:01:46.201Z,82.51
2017-03-31T05:02:26.828Z,82.51
2017-03-31T05:03:07.430Z,82.61
2017-03-31T05:03:48.117Z,82.99
2017-03-31T05:04:28.683Z,82.99
2017-03-31T05:05:09.355Z,83.04
2017-03-31T05:05:50.027Z,82.99
2017-03-31T05:06:30.619Z,82.76
2017-03-31T05:07:11.216Z,82.8
2017-03-31T05:07:52.052Z,82.9
2017-03-31T05:08:32.762Z,82.9
2017-03-31T05:09:13.439Z,82.8
2017-03-31T05:09:54.029Z,83.09
2017-03-31T05:10:34.683Z,83.09
2017-03-31T05:11:15.349Z,82.99
2017-03-31T05:11:55.943Z,83.09
2017-03-31T05:12:36.601Z,82.9
2017-03-31T05:13:17.272Z,82.99
2017-03-31T05:13:57.925Z,82.9
2017-03-31T05:14:38.568Z,82.9
2017-03-31T05:15:19.217Z,82.8
2017-03-31T05:15:59.859Z,82.8
2017-03-31T05:16:40.523Z,82.99
2017-03-31T05:17:21.093Z,82.8
2017-03-31T05:18:01.749Z,82.86
2017-03-31T05:18:42.447Z,82.99
2017-03-31T05:19:23.028Z,83.09
2017-03-31T05:20:03.614Z,82.9
2017-03-31T05:20:44.250Z,82.8
2017-03-31T05:21:24.838Z,82.8
2017-03-31T05:22:05.440Z,82.99
2017-03-31T05:22:46.010Z,82.8
2017-03-31T05:23:26.662Z,82.76
2017-03-31T05:24:07.343Z,82.8
2017-03-31T05:24:47.966Z,82.99
2017-03-31T05:25:28.621Z,82.9
2017-03-31T05:26:09.258Z,82.99
2017-03-31T05:26:49.921Z,82.99
2017-03-31T05:27:30.620Z,82.51
2017-03-31T05:28:11.301Z,82.57
2017-03-31T05:28:51.897Z,82.9
2017-03-31T05:29:32.528Z,82.8
2017-03-31T05:30:13.119Z,82.61
2017-03-31T05:30:53.713Z,82.7
2017-03-31T05:31:34.342Z,82.51
2017-03-31T05:32:14.949Z,82.61
2017-03-31T05:32:55.577Z,82.61
2017-03-31T05:33:36.161Z,82.7
2017-03-31T05:34:16.797Z,82.8
2017-03-31T05:34:57.425Z,82.42
2017-03-31T05:35:38.018Z,82.7
2017-03-31T05:36:18.672Z,82.99
2017-03-31T05:36:59.273Z,82.7
2017-03-31T05:37:39.857Z,82.7
2017-03-31T05:38:20.510Z,82.51
2017-03-31T05:39:01.163Z,82.8
2017-03-31T05:39:41.827Z,82.32
2017-03-31T05:40:22.463Z,82.32
2017-03-31T05:41:03.124Z,82.42
2017-03-31T05:41:43.780Z,82.8
2017-03-31T05:42:24.427Z,82.61
2017-03-31T05:43:05.084Z,83.18
2017-03-31T05:43:45.757Z,83.09
2017-03-31T05:44:26.395Z,83.09
2017-03-31T05:45:07.088Z,82.32
2017-03-31T05:45:47.688Z,82.51
2017-03-31T05:46:28.334Z,82.51
2017-03-31T05:47:09.008Z,82.8
2017-03-31T05:47:49.643Z,82.61
2017-03-31T05:48:30.294Z,82.32
2017-03-31T05:49:10.954Z,82.61
2017-03-31T05:49:51.607Z,82.61
2017-03-31T05:50:32.253Z,82.04
2017-03-31T05:51:12.844Z,82.23
2017-03-31T05:51:53.501Z,82.32
2017-03-31T05:52:34.154Z,82.18
2017-03-31T05:53:14.804Z,82.46
2017-03-31T05:53:55.461Z,82.37
2017-03-31T05:54:36.118Z,82.37
2017-03-31T05:55:16.763Z,82.37
2017-03-31T05:55:57.414Z,82.56
2017-03-31T05:56:38.068Z,81.79
2017-03-31T05:57:18.723Z,82.08
2017-03-31T05:57:59.339Z,81.98
2017-03-31T05:58:40.013Z,82.08
2017-03-31T05:59:20.631Z,81.7
2017-03-31T06:00:01.299Z,81.79
2017-03-31T06:00:41.954Z,81.6
2017-03-31T06:01:22.604Z,81.98
2017-03-31T06:02:03.274Z,81.7
2017-03-31T06:02:43.931Z,81.23
2017-03-31T06:03:24.608Z,81.51
2017-03-31T06:04:05.237Z,81.51
2017-03-31T06:04:45.869Z,81.23
2017-03-31T06:05:27.589Z,81.07
2017-03-31T06:06:08.206Z,81.07
2017-03-31T06:06:48.857Z,81.55
2017-03-31T06:07:29.939Z,81.65
2017-03-31T06:08:10.552Z,80.79
2017-03-31T06:08:53.177Z,81.07
2017-03-31T06:09:33.794Z,80.79
2017-03-31T06:10:14.485Z,81.26
2017-03-31T06:10:55.346Z,80.6
2017-03-31T06:11:37.013Z,80.79
2017-03-31T06:12:17.705Z,80.79
2017-03-31T06:12:58.301Z,80.88
2017-03-31T06:13:39.280Z,80.5
2017-03-31T06:14:19.948Z,80.31
2017-03-31T06:15:00.517Z,80.22
2017-03-31T06:15:42.188Z,80.6
2017-03-31T06:16:22.783Z,80.41
2017-03-31T06:17:03.404Z,80.64
2017-03-31T06:17:44.018Z,80.16
2017-03-31T06:18:24.710Z,80.07
2017-03-31T06:19:05.297Z,79.78
2017-03-31T06:19:45.914Z,79.59
2017-03-31T06:20:26.518Z,79.97
2017-03-31T06:21:07.111Z,79.97
2017-03-31T06:21:47.703Z,79.4
2017-03-31T06:22:28.280Z,79.4
2017-03-31T06:23:09.975Z,79.4
2017-03-31T06:23:50.669Z,79.49
2017-03-31T06:24:31.340Z,79.49
2017-03-31T06:25:11.924Z,79.02
2017-03-31T06:25:52.562Z,79.11
2017-03-31T06:26:33.249Z,79.25
2017-03-31T06:27:13.852Z,79.4
2017-03-31T06:27:54.506Z,78.92
2017-03-31T06:28:35.156Z,78.58
2017-03-31T06:29:15.821Z,78.77
2017-03-31T06:29:56.459Z,78.96
2017-03-31T06:30:37.125Z,79.06
2017-03-31T06:31:17.773Z,78.77
2017-03-31T06:31:58.354Z,78.67
2017-03-31T06:32:38.996Z,78.39
2017-03-31T06:33:19.588Z,78.49
2017-03-31T06:34:00.180Z,78.67
2017-03-31T06:34:40.749Z,78.77
2017-03-31T06:35:22.427Z,78.39
2017-03-31T06:36:03.013Z,78.3
2017-03-31T06:36:43.611Z,78.49
2017-03-31T06:37:24.202Z,78.01
2017-03-31T06:38:04.839Z,78.3
2017-03-31T06:38:45.476Z,77.91
2017-03-31T06:39:26.177Z,78.01
2017-03-31T06:40:06.835Z,78.14
2017-03-31T06:40:47.453Z,77.82
2017-03-31T06:41:28.087Z,77.62
2017-03-31T06:42:08.768Z,77.76
2017-03-31T06:42:49.376Z,77.38
2017-03-31T06:43:29.960Z,77.47
2017-03-31T06:44:10.606Z,77.57
2017-03-31T06:44:51.243Z,77.67
2017-03-31T06:45:31.829Z,77.67
2017-03-31T06:46:12.466Z,77.28
2017-03-31T06:46:53.097Z,77
2017-03-31T06:47:33.734Z,77
2017-03-31T06:48:14.442Z,77.28
2017-03-31T06:48:55.117Z,76.62
2017-03-31T06:49:35.705Z,77
2017-03-31T06:50:16.300Z,76.42
2017-03-31T06:50:56.932Z,76.9
2017-03-31T06:51:37.726Z,76.33
2017-03-31T06:52:18.301Z,77.32
2017-03-31T06:52:58.912Z,76.81
2017-03-31T06:53:39.514Z,77
2017-03-31T06:54:20.093Z,77.03
2017-03-31T06:55:00.714Z,76.75
2017-03-31T06:55:41.394Z,76.37
2017-03-31T06:56:22.014Z,76.46
2017-03-31T06:57:03.657Z,76.65
2017-03-31T06:57:44.256Z,76.27
2017-03-31T06:58:24.827Z,76.18
2017-03-31T06:59:05.500Z,76.27
2017-03-31T06:59:46.151Z,76.27
2017-03-31T07:00:26.776Z,75.98
2017-03-31T07:01:07.492Z,76.08
2017-03-31T07:01:48.101Z,75.7
2017-03-31T07:02:28.794Z,75.7
2017-03-31T07:03:09.422Z,75.98
2017-03-31T07:03:50.151Z,75.26
2017-03-31T07:04:30.803Z,75.26
2017-03-31T07:05:11.491Z,75.26
2017-03-31T07:05:52.118Z,75.07
2017-03-31T07:06:32.769Z,75.16
2017-03-31T07:07:13.433Z,74.98
2017-03-31T07:07:54.071Z,74.88
2017-03-31T07:08:34.731Z,74.98
2017-03-31T07:09:15.366Z,74.69
2017-03-31T07:09:56.043Z,74.78
2017-03-31T07:10:37.727Z,74.69
2017-03-31T07:11:18.360Z,74.3
2017-03-31T07:11:59.040Z,74.78
2017-03-31T07:12:39.700Z,73.86
2017-03-31T07:13:20.290Z,74.02
2017-03-31T07:14:00.892Z,74.34
2017-03-31T07:14:41.566Z,73.86
2017-03-31T07:15:22.231Z,73.96
2017-03-31T07:16:02.811Z,73.96
2017-03-31T07:16:43.404Z,73.48
2017-03-31T07:17:24.070Z,73.1
2017-03-31T07:18:04.693Z,73.19
2017-03-31T07:18:45.336Z,73.67
2017-03-31T07:19:26.011Z,73.29
2017-03-31T07:20:06.651Z,73.1
2017-03-31T07:20:47.291Z,72.91
2017-03-31T07:21:27.973Z,72.72
2017-03-31T07:22:09.626Z,73.1
2017-03-31T07:22:50.207Z,73.1
2017-03-31T07:23:30.902Z,72.81
2017-03-31T07:24:11.528Z,72.47
2017-03-31T07:24:52.204Z,72.43
2017-03-31T07:25:32.829Z,72.56
2017-03-31T07:26:13.531Z,72.37
2017-03-31T07:26:54.157Z,72.37
2017-03-31T07:27:34.735Z,72.47
2017-03-31T07:28:15.323Z,72.56
2017-03-31T07:28:55.914Z,72.37
2017-03-31T07:29:36.490Z,72.08
2017-03-31T07:30:17.069Z,72.56
2017-03-31T07:31:02.280Z,71.99
2017-03-31T07:31:42.855Z,71.89
2017-03-31T07:32:23.431Z,71.89
2017-03-31T07:33:04.028Z,71.99
2017-03-31T07:33:44.609Z,71.99
2017-03-31T07:34:25.189Z,71.8
2017-03-31T07:35:06.160Z,71.7
2017-03-31T07:35:46.749Z,71.7
2017-03-31T07:36:27.323Z,71.89
2017-03-31T07:37:07.915Z,71.99
2017-03-31T07:37:48.513Z,71.7
2017-03-31T07:38:29.103Z,72.18
2017-03-31T07:39:09.700Z,72.18
2017-03-31T07:39:50.288Z,71.99
2017-03-31T07:40:30.873Z,72.18
2017-03-31T07:41:11.448Z,71.89
2017-03-31T07:41:52.029Z,71.89
2017-03-31T07:42:33.592Z,71.99
2017-03-31T07:43:15.235Z,71.8
2017-03-31T07:43:55.837Z,71.8
2017-03-31T07:44:36.427Z,71.51
2017-03-31T07:45:18.049Z,71.51
2017-03-31T07:45:58.768Z,71.61
2017-03-31T07:46:40.432Z,71.51
2017-03-31T07:47:25.790Z,71.51
2017-03-31T07:48:06.488Z,71.51
2017-03-31T07:48:47.175Z,71.51
2017-03-31T07:49:27.911Z,71.7
2017-03-31T07:50:08.659Z,71.7
2017-03-31T07:50:49.277Z,71.7
2017-03-31T07:51:29.854Z,71.42
2017-03-31T07:52:10.566Z,71.8
2017-03-31T07:52:51.308Z,71.13
2017-03-31T07:53:31.944Z,71.22
2017-03-31T07:54:12.587Z,71.42
2017-03-31T07:54:53.262Z,71.32
2017-03-31T07:55:33.900Z,71.36
2017-03-31T07:56:14.547Z,70.59
2017-03-31T07:56:55.197Z,70.59
2017-03-31T07:57:36.490Z,70.5
2017-03-31T07:58:18.066Z,70.21
2017-03-31T07:59:00.897Z,70.21
2017-03-31T07:59:41.901Z,69.54
2017-03-31T08:00:22.858Z,69.64
2017-03-31T08:01:04.412Z,69.15
2017-03-31T08:01:45.118Z,69.35
2017-03-31T08:02:25.796Z,69.15
2017-03-31T08:03:06.376Z,68.96
2017-03-31T08:03:47.019Z,68.96
2017-03-31T08:04:27.605Z,69.15
2017-03-31T08:05:08.282Z,68.52
2017-03-31T08:05:48.924Z,68.52
2017-03-31T08:06:29.538Z,68.62
2017-03-31T08:07:10.190Z,68.33
2017-03-31T08:07:51.171Z,68.33
2017-03-31T08:08:32.239Z,68.13
2017-03-31T08:09:13.331Z,68.04
2017-03-31T08:09:54.102Z,68.52
2017-03-31T08:10:34.842Z,67.94
2017-03-31T08:11:15.629Z,67.94
2017-03-31T08:11:56.228Z,68.27
2017-03-31T08:12:36.796Z,67.69
2017-03-31T08:13:18.438Z,67.79
2017-03-31T08:14:00.086Z,67.79
2017-03-31T08:14:40.706Z,67.27
2017-03-31T08:15:21.285Z,67.5
2017-03-31T08:16:02.869Z,67.69
2017-03-31T08:16:43.445Z,66.93
2017-03-31T08:17:24.026Z,66.93
2017-03-31T08:18:04.658Z,67.11
2017-03-31T08:18:45.238Z,67.02
2017-03-31T08:19:25.818Z,66.54
2017-03-31T08:20:06.413Z,66.64
2017-03-31T08:20:47.021Z,66.45
2017-03-31T08:21:27.639Z,66.29
2017-03-31T08:22:08.222Z,66.29
2017-03-31T08:22:48.805Z,66.09
2017-03-31T08:23:29.375Z,66.38
2017-03-31T08:24:09.936Z,66.09
2017-03-31T08:24:50.550Z,66.19
2017-03-31T08:25:31.128Z,65.81
2017-03-31T08:26:11.720Z,65.52
2017-03-31T08:26:52.299Z,65.71
2017-03-31T08:27:32.877Z,65.42
2017-03-31T08:28:13.458Z,65.62
2017-03-31T08:28:54.022Z,65.05
2017-03-31T08:29:34.609Z,64.95
2017-03-31T08:30:15.197Z,64.79
2017-03-31T08:30:55.763Z,64.98
2017-03-31T08:31:36.343Z,65.26
2017-03-31T08:32:16.903Z,64.69
2017-03-31T08:32:57.503Z,64.59
2017-03-31T08:33:38.076Z,64.5
2017-03-31T08:34:18.682Z,64.69
2017-03-31T08:34:59.283Z,64.89
2017-03-31T08:35:39.860Z,64.59
2017-03-31T08:36:20.435Z,64.22
2017-03-31T08:37:01.019Z,63.76
2017-03-31T08:37:41.614Z,64.25
2017-03-31T08:38:22.186Z,63.57
2017-03-31T08:39:02.774Z,63.48
2017-03-31T08:39:43.380Z,63.76
2017-03-31T08:40:23.944Z,63.29
2017-03-31T08:41:04.532Z,62.9
2017-03-31T08:41:45.177Z,63.03
2017-03-31T08:42:25.730Z,63.03
2017-03-31T08:43:06.310Z,62.55
2017-03-31T08:43:46.875Z,61.98
2017-03-31T08:44:27.444Z,61.88
2017-03-31T08:45:08.033Z,61.78
2017-03-31T08:45:48.609Z,61.69
2017-03-31T08:46:29.174Z,61.78
2017-03-31T08:47:09.779Z,61.78
2017-03-31T08:47:50.360Z,61.49
2017-03-31T08:48:30.941Z,61.3
2017-03-31T08:49:11.524Z,60.82